Time;durP1;ratioP1;P1;durP2;ratioP2;P2;SDS_P1;SDS_P2;PMS_P1;PMS_P2;Temp;Humidity;BMP_temperature;BMP_pressure;BME280_temperature;BME280_humidity;BME280_pressure;Samples;Min_cycle;Max_cycle;Signal;HPM_P1;HPM_P2
2022/10/14 00:00:16;;;;;;;163.88;19.92;;;12.10;99.90;;;;;;5050756;28;20095;-71
2022/10/14 00:02:41;;;;;;;90.18;16.95;;;12.30;99.90;;;;;;5050037;28;20037;-72
2022/10/14 00:05:08;;;;;;;115.88;17.40;;;12.30;99.90;;;;;;5051339;28;20029;-71
2022/10/14 00:07:35;;;;;;;261.52;24.98;;;12.30;99.90;;;;;;5050163;28;20429;-71
2022/10/14 00:10:01;;;;;;;149.68;18.58;;;;;;;;;;5050279;28;20051;-70
2022/10/14 00:12:28;;;;;;;208.43;22.60;;;12.00;99.90;;;;;;5048984;28;20067;-70
2022/10/14 00:14:54;;;;;;;139.77;17.20;;;;;;;;;;5050973;28;20033;-71
2022/10/14 00:17:20;;;;;;;364.10;33.83;;;;;;;;;;5048234;28;20048;-71
2022/10/14 00:19:46;;;;;;;105.90;16.42;;;;;;;;;;5049401;28;20059;-71
2022/10/14 00:22:12;;;;;;;89.45;15.20;;;;;;;;;;5050294;28;20124;-71
2022/10/14 00:24:38;;;;;;;338.25;36.80;;;11.90;99.90;;;;;;5050046;28;20040;-71
2022/10/14 00:27:04;;;;;;;90.35;15.23;;;;;;;;;;5049805;28;20044;-71
2022/10/14 00:29:30;;;;;;;157.93;16.65;;;;;;;;;;5051276;28;20056;-71
2022/10/14 00:31:56;;;;;;;160.05;18.08;;;;;;;;;;5031141;28;20542;-71
2022/10/14 00:34:22;;;;;;;168.73;17.88;;;11.90;99.90;;;;;;5032743;28;20041;-71
2022/10/14 00:36:47;;;;;;;76.80;12.48;;;12.00;99.90;;;;;;5050057;28;20033;-71
2022/10/14 00:39:13;;;;;;;37.40;11.52;;;;;;;;;;5050055;28;20079;-71
2022/10/14 00:41:41;;;;;;;98.47;14.25;;;11.60;99.90;;;;;;5049738;28;20037;-71
2022/10/14 00:44:26;;;;;;;86.10;13.07;;;11.80;99.90;;;;;;5049717;28;20142;-72
2022/10/14 00:46:53;;;;;;;38.88;11.23;;;11.70;99.90;;;;;;5040133;28;20038;-71
2022/10/14 00:49:22;;;;;;;45.80;11.82;;;11.80;99.90;;;;;;5031260;28;20042;-71
2022/10/14 00:51:52;;;;;;;88.43;13.05;;;11.70;99.90;;;;;;5030230;28;20057;-72
2022/10/14 00:54:23;;;;;;;81.85;13.38;;;11.70;99.90;;;;;;5029718;28;20033;-71
2022/10/14 00:56:49;;;;;;;56.28;11.65;;;11.80;99.90;;;;;;5029744;28;20091;-71
2022/10/14 00:59:15;;;;;;;102.70;13.80;;;11.60;99.90;;;;;;5029861;28;20030;-71
2022/10/14 01:01:40;;;;;;;112.50;14.23;;;11.60;99.90;;;;;;5013334;28;20037;-71
2022/10/14 01:04:06;;;;;;;88.40;13.00;;;;;;;;;;5049367;28;20047;-71
2022/10/14 01:06:32;;;;;;;147.50;16.25;;;11.80;99.90;;;;;;5049705;28;20045;-71
2022/10/14 01:09:18;;;;;;;45.58;11.95;;;11.80;99.90;;;;;;5051189;28;20049;-71
2022/10/14 01:12:17;;;;;;;45.05;12.35;;;11.80;99.90;;;;;;5032340;28;20045;-71
2022/10/14 01:14:43;;;;;;;64.68;14.43;;;;;;;;;;5049496;28;20053;-72
2022/10/14 01:17:42;;;;;;;96.35;16.75;;;11.60;99.90;;;;;;5033435;28;20044;-71
2022/10/14 01:20:22;;;;;;;30.42;12.25;;;11.60;99.90;;;;;;5055081;28;20044;-71
2022/10/14 01:23:15;;;;;;;99.43;15.15;;;11.20;99.90;;;;;;5060716;28;20041;-71
2022/10/14 01:26:23;;;;;;;52.17;13.63;;;11.60;99.90;;;;;;5058244;28;20494;-71
2022/10/14 01:28:57;;;;;;;28.95;11.23;;;11.80;99.90;;;;;;5054953;28;20144;-71
2022/10/14 01:31:30;;;;;;;178.48;18.95;;;11.50;99.90;;;;;;5054531;28;20047;-71
2022/10/14 01:33:57;;;;;;;;;;;11.60;99.90;;;;;;5036843;28;20037;-71
2022/10/14 01:36:52;;;;;;;328.00;24.08;;;11.60;99.90;;;;;;5051564;28;19967;-71
2022/10/14 01:39:31;;;;;;;78.75;15.48;;;11.70;99.90;;;;;;5034835;28;20052;-71
2022/10/14 01:42:02;;;;;;;323.58;25.63;;;11.80;99.90;;;;;;5047483;28;20029;-71
2022/10/14 01:44:31;;;;;;;182.32;19.60;;;11.70;99.90;;;;;;5033974;28;20037;-71
2022/10/14 01:46:59;;;;;;;64.53;14.10;;;11.70;99.90;;;;;;5033549;28;20033;-72
2022/10/14 01:49:35;;;;;;;98.68;16.38;;;11.60;99.90;;;;;;5033102;28;20652;-72
2022/10/14 01:52:26;;;;;;;126.35;17.70;;;11.50;99.90;;;;;;5039822;28;20028;-72
2022/10/14 01:54:55;;;;;;;57.03;14.82;;;11.70;99.90;;;;;;5035677;28;20037;-72
2022/10/14 01:57:27;;;;;;;173.43;19.45;;;11.70;99.90;;;;;;5050844;28;20033;-72
2022/10/14 01:59:54;;;;;;;221.88;21.50;;;11.60;99.90;;;;;;5052622;28;20491;-72
2022/10/14 02:02:21;;;;;;;72.03;15.45;;;11.70;99.90;;;;;;5052232;28;20525;-72
2022/10/14 02:04:46;;;;;;;188.70;19.23;;;11.70;99.90;;;;;;5052189;28;20087;-71
2022/10/14 02:07:38;;;;;;;261.25;22.85;;;11.60;99.90;;;;;;5053243;28;20033;-71
2022/10/14 02:10:04;;;;;;;56.88;12.40;;;;;;;;;;5033692;28;20096;-72
2022/10/14 02:12:47;;;;;;;67.10;11.80;;;11.70;99.90;;;;;;5032299;28;20049;-72
2022/10/14 02:15:30;;;;;;;76.20;13.95;;;11.70;99.90;;;;;;5033516;28;20049;-72
2022/10/14 02:17:56;;;;;;;115.13;15.50;;;;;;;;;;5032195;28;20077;-72
2022/10/14 02:20:28;;;;;;;154.43;15.77;;;11.50;99.90;;;;;;5032217;28;20080;-72
2022/10/14 02:23:05;;;;;;;152.05;16.35;;;11.50;99.90;;;;;;5033379;28;20419;-72
2022/10/14 02:25:34;;;;;;;104.00;15.07;;;11.30;99.90;;;;;;5031796;28;20045;-72
2022/10/14 02:28:02;;;;;;;159.55;16.75;;;11.40;99.90;;;;;;5048393;28;20087;-72
2022/10/14 02:30:31;;;;;;;124.45;15.82;;;11.50;99.90;;;;;;5033506;28;20049;-72
2022/10/14 02:32:59;;;;;;;101.15;16.48;;;11.40;99.90;;;;;;5037772;28;20037;-72
2022/10/14 02:35:26;;;;;;;69.82;14.15;;;11.50;99.90;;;;;;5051035;28;20437;-72
2022/10/14 02:37:54;;;;;;;95.38;17.63;;;11.20;99.90;;;;;;5033173;28;20439;-72
2022/10/14 02:40:26;;;;;;;41.65;12.82;;;11.40;99.90;;;;;;5032099;28;20087;-72
2022/10/14 02:42:52;;;;;;;53.45;14.23;;;11.40;99.90;;;;;;5051459;28;20044;-72
2022/10/14 02:45:18;;;;;;;67.47;15.15;;;11.40;99.90;;;;;;5052662;28;20044;-72
2022/10/14 02:47:44;;;;;;;124.25;19.90;;;11.40;99.90;;;;;;5051691;28;20048;-72
2022/10/14 02:50:10;;;;;;;82.50;16.08;;;11.50;99.90;;;;;;5035253;28;20403;-72
2022/10/14 02:52:36;;;;;;;61.10;13.80;;;;;;;;;;5051816;28;20410;-72
2022/10/14 02:55:02;;;;;;;83.50;14.52;;;;;;;;;;5051012;28;20152;-72
2022/10/14 02:57:28;;;;;;;120.68;18.08;;;11.40;99.90;;;;;;5032472;28;20036;-72
2022/10/14 02:59:53;;;;;;;24.95;10.93;;;11.20;99.90;;;;;;5050974;28;20406;-72
2022/10/14 03:02:19;;;;;;;48.30;12.43;;;;;;;;;;5051291;28;20094;-72
2022/10/14 03:04:45;;;;;;;32.08;10.48;;;;;;;;;;5050896;28;20040;-72
2022/10/14 03:07:11;;;;;;;41.08;11.77;;;;;;;;;;5052320;28;20364;-72
2022/10/14 03:09:37;;;;;;;30.63;11.02;;;;;;;;;;5051067;28;20049;-72
2022/10/14 03:12:03;;;;;;;45.78;11.13;;;11.00;99.90;;;;;;5050127;28;20048;-72
2022/10/14 03:14:29;;;;;;;39.25;11.02;;;;;;;;;;5047949;28;20029;-73
2022/10/14 03:16:55;;;;;;;20.27;9.63;;;;;;;;;;5040740;28;20500;-73
2022/10/14 03:19:21;;;;;;;57.03;10.95;;;;;;;;;;5031269;28;20037;-72
2022/10/14 03:21:47;;;;;;;73.32;11.25;;;;;;;;;;5031106;28;20561;-72
2022/10/14 03:24:13;;;;;;;83.03;11.25;;;10.60;99.90;;;;;;5034659;28;20053;-72
2022/10/14 03:26:39;;;;;;;117.60;14.52;;;;;;;;;;5047506;28;20126;-72
2022/10/14 03:29:05;;;;;;;122.35;14.63;;;;;;;;;;5031054;28;20537;-72
2022/10/14 03:31:31;;;;;;;48.75;10.57;;;;;;;;;;5048410;28;20093;-72
2022/10/14 03:33:57;;;;;;;27.98;8.60;;;;;;;;;;5050285;28;20098;-71
2022/10/14 03:36:23;;;;;;;62.58;12.10;;;;;;;;;;5052047;28;20044;-72
2022/10/14 03:38:49;;;;;;;82.68;13.13;;;;;;;;;;5050667;28;20565;-72
2022/10/14 03:41:14;;;;;;;67.82;12.82;;;10.60;99.90;;;;;;5033886;28;20047;-72
2022/10/14 03:43:40;;;;;;;71.57;13.77;;;;;;;;;;5049015;28;20503;-72
2022/10/14 03:46:06;;;;;;;41.72;10.55;;;;;;;;;;5031672;28;20128;-72
2022/10/14 03:48:32;;;;;;;32.90;9.88;;;;;;;;;;5030556;28;20112;-72
2022/10/14 03:50:58;;;;;;;35.03;10.60;;;;;;;;;;5037889;28;20412;-72
2022/10/14 03:53:24;;;;;;;70.72;14.02;;;10.80;99.90;;;;;;5037507;28;20080;-71
2022/10/14 03:55:50;;;;;;;23.45;10.98;;;;;;;;;;5038337;28;20120;-71
2022/10/14 03:58:16;;;;;;;44.53;11.73;;;;;;;;;;5030775;28;20037;-71
2022/10/14 04:00:41;;;;;;;98.15;15.73;;;10.70;99.90;;;;;;5032023;28;20102;-71
2022/10/14 04:03:07;;;;;;;63.10;13.65;;;;;;;;;;5031094;28;20042;-73
2022/10/14 04:05:33;;;;;;;38.58;12.10;;;;;;;;;;5030356;28;20092;-72
2022/10/14 04:08:00;;;;;;;35.67;11.77;;;10.80;99.90;;;;;;5031936;28;20048;-73
2022/10/14 04:10:26;;;;;;;37.55;12.43;;;11.40;99.90;;;;;;5030764;28;20088;-73
2022/10/14 04:12:55;;;;;;;18.73;10.75;;;10.80;99.90;;;;;;5030461;28;20532;-73
2022/10/14 04:15:21;;;;;;;62.78;14.85;;;10.80;99.90;;;;;;5030036;28;20037;-73
2022/10/14 04:17:47;;;;;;;46.15;13.02;;;10.90;99.90;;;;;;5032511;28;20516;-73
2022/10/14 04:20:14;;;;;;;41.50;12.88;;;10.80;99.90;;;;;;5014090;28;20508;-73
2022/10/14 04:22:39;;;;;;;44.47;11.85;;;11.00;99.90;;;;;;5030312;28;20533;-72
2022/10/14 04:25:06;;;;;;;48.40;11.75;;;10.80;99.90;;;;;;5031217;28;20080;-72
2022/10/14 04:27:32;;;;;;;38.13;11.93;;;10.90;99.90;;;;;;5030139;28;20511;-72
2022/10/14 04:29:58;;;;;;;32.28;13.25;;;10.90;99.90;;;;;;5030291;28;20049;-73
2022/10/14 04:32:24;;;;;;;54.22;12.43;;;;;;;;;;5013686;28;20049;-73
2022/10/14 04:34:50;;;;;;;38.35;13.25;;;;;;;;;;5047748;28;20037;-73
2022/10/14 04:37:16;;;;;;;76.90;16.23;;;10.70;99.90;;;;;;5031368;28;20398;-73
2022/10/14 04:39:42;;;;;;;35.47;11.85;;;;;;;;;;5030360;28;20125;-73
2022/10/14 04:42:08;;;;;;;39.20;13.40;;;10.90;99.90;;;;;;5030201;28;20046;-73
2022/10/14 04:44:34;;;;;;;34.85;12.07;;;;;;;;;;5030160;28;20033;-73
2022/10/14 04:47:00;;;;;;;58.63;14.13;;;;;;;;;;5031093;28;20034;-73
2022/10/14 04:49:26;;;;;;;100.82;15.25;;;;;;;;;;5034562;28;20402;-72
2022/10/14 04:51:52;;;;;;;101.68;15.07;;;;;;;;;;5050001;28;20041;-72
2022/10/14 04:54:18;;;;;;;70.70;15.10;;;10.70;99.90;;;;;;5053588;28;20041;-72
2022/10/14 04:56:43;;;;;;;60.65;13.85;;;10.90;99.90;;;;;;5053467;28;20048;-72
2022/10/14 04:59:10;;;;;;;40.83;13.27;;;10.90;99.90;;;;;;5053760;28;20036;-73
2022/10/14 05:01:36;;;;;;;39.83;13.82;;;10.90;99.90;;;;;;5037424;28;20105;-73
2022/10/14 05:04:02;;;;;;;74.03;14.65;;;;;;;;;;5054674;28;20116;-72
2022/10/14 05:06:27;;;;;;;51.20;14.75;;;10.70;99.90;;;;;;5053144;28;20494;-73
2022/10/14 05:08:53;;;;;;;77.90;15.95;;;;;;;;;;5053594;28;20044;-73
2022/10/14 05:11:19;;;;;;;76.75;15.50;;;;;;;;;;5036889;28;20663;-73
2022/10/14 05:13:45;;;;;;;46.67;14.27;;;;;;;;;;5036588;28;20041;-73
2022/10/14 05:16:11;;;;;;;46.83;14.77;;;10.90;99.90;;;;;;5053309;28;20044;-72
2022/10/14 05:18:37;;;;;;;65.70;15.23;;;;;;;;;;5053053;28;20040;-72
2022/10/14 05:21:03;;;;;;;66.65;15.95;;;10.80;99.90;;;;;;5042841;28;20037;-73
2022/10/14 05:23:29;;;;;;;50.13;14.93;;;;;;;;;;5033816;28;20040;-73
2022/10/14 05:25:55;;;;;;;65.95;14.40;;;;;;;;;;5032800;28;20072;-71
2022/10/14 05:28:21;;;;;;;56.95;15.30;;;10.80;99.90;;;;;;5034723;28;20052;-73
2022/10/14 05:30:46;;;;;;;93.05;18.33;;;;;;;;;;5033421;28;20116;-73
2022/10/14 05:33:12;;;;;;;48.83;14.88;;;;;;;;;;5033166;28;20133;-73
2022/10/14 05:35:38;;;;;;;63.30;14.90;;;10.80;99.90;;;;;;5032741;28;20041;-72
2022/10/14 05:38:04;;;;;;;129.30;18.55;;;10.70;99.90;;;;;;5034410;28;20495;-73
2022/10/14 05:40:30;;;;;;;65.22;15.25;;;;;;;;;;5050596;28;20037;-73
2022/10/14 05:42:55;;;;;;;72.43;15.93;;;10.80;99.90;;;;;;5052974;28;20037;-73
2022/10/14 05:45:22;;;;;;;91.68;16.52;;;;;;;;;;5052766;28;20410;-73
2022/10/14 05:47:48;;;;;;;95.43;17.45;;;;;;;;;;5052640;28;20442;-73
2022/10/14 05:50:14;;;;;;;37.70;13.38;;;;;;;;;;5052929;28;20033;-72
2022/10/14 05:52:39;;;;;;;58.63;14.90;;;10.70;99.90;;;;;;5035975;28;20041;-73
2022/10/14 05:55:07;;;;;;;86.07;17.90;;;10.60;99.90;;;;;;5050796;28;20036;-73
2022/10/14 05:57:33;;;;;;;58.08;15.57;;;;;;;;;;5034143;28;20034;-73
2022/10/14 05:59:59;;;;;;;59.67;15.95;;;10.70;99.90;;;;;;5031742;28;20076;-73
2022/10/14 06:02:25;;;;;;;76.00;15.82;;;10.40;99.90;;;;;;5030881;28;20297;-73
2022/10/14 06:04:52;;;;;;;38.03;14.63;;;10.60;99.90;;;;;;5029276;28;20091;-72
2022/10/14 06:07:18;;;;;;;54.22;15.32;;;;;;;;;;5031752;28;20045;-72
2022/10/14 06:09:44;;;;;;;43.92;14.93;;;;;;;;;;5030056;28;20030;-73
2022/10/14 06:12:11;;;;;;;49.70;15.95;;;;;;;;;;5038977;28;20037;-72
2022/10/14 06:14:37;;;;;;;34.40;13.73;;;;;;;;;;5050769;28;20067;-73
2022/10/14 06:17:04;;;;;;;51.47;18.15;;;10.70;99.90;;;;;;5049889;28;20041;-73
2022/10/14 06:19:31;;;;;;;57.90;16.40;;;10.70;99.90;;;;;;5031445;28;20079;-73
2022/10/14 06:21:57;;;;;;;49.90;14.70;;;;;;;;;;5054763;28;20040;-73
2022/10/14 06:24:23;;;;;;;107.82;22.35;;;;;;;;;;5018769;28;20037;-73
2022/10/14 06:26:48;;;;;;;76.93;16.67;;;10.60;99.90;;;;;;5048743;28;20055;-72
2022/10/14 06:29:15;;;;;;;47.05;14.25;;;10.70;99.90;;;;;;5043735;28;20075;-72
2022/10/14 06:31:40;;;;;;;90.95;17.92;;;10.70;99.90;;;;;;5046558;28;20096;-72
2022/10/14 06:34:07;;;;;;;75.95;15.63;;;;;;;;;;5043032;28;20426;-73
2022/10/14 06:36:33;;;;;;;60.75;16.90;;;10.60;99.90;;;;;;5047862;28;20036;-72
2022/10/14 06:38:59;;;;;;;46.60;14.95;;;;;;;;;;5043758;28;20037;-72
2022/10/14 06:41:25;;;;;;;65.43;17.30;;;;;;;;;;5041781;28;20504;-72
2022/10/14 06:43:51;;;;;;;115.13;21.05;;;;;;;;;;5062603;28;20526;-72
2022/10/14 06:46:17;;;;;;;38.28;13.88;;;10.70;99.90;;;;;;5045219;28;20532;-72
2022/10/14 06:48:43;;;;;;;26.38;13.27;;;;;;;;;;5045322;28;20037;-72
2022/10/14 06:51:09;;;;;;;58.90;18.63;;;10.70;99.90;;;;;;5038198;28;20283;-72
2022/10/14 06:53:35;;;;;;;39.10;14.18;;;;;;;;;;5020556;28;20127;-72
2022/10/14 06:56:03;;;;;;;114.43;21.50;;;;;;;;;;5044072;28;20037;-72
2022/10/14 06:58:29;;;;;;;52.97;15.77;;;10.90;99.90;;;;;;5056323;28;20042;-72
2022/10/14 07:01:00;;;;;;;27.27;12.82;;;10.90;99.90;;;;;;5039839;28;20080;-71
2022/10/14 07:03:26;;;;;;;26.33;13.27;;;;;;;;;;5039509;28;20062;-72
2022/10/14 07:05:52;;;;;;;18.70;12.20;;;;;;;;;;5039093;28;20060;-71
2022/10/14 07:08:18;;;;;;;37.33;15.52;;;;;;;;;;5040300;28;20068;-72
2022/10/14 07:10:45;;;;;;;27.90;13.50;;;10.80;99.90;;;;;;5042650;28;20029;-71
2022/10/14 07:13:11;;;;;;;27.45;13.65;;;;;;;;;;5032557;28;20132;-71
2022/10/14 07:15:37;;;;;;;21.98;12.95;;;10.90;99.90;;;;;;5029393;28;20136;-72
2022/10/14 07:18:04;;;;;;;29.63;14.57;;;10.90;99.90;;;;;;5032458;28;20031;-71
2022/10/14 07:20:30;;;;;;;22.13;13.68;;;;;;;;;;5022907;28;20068;-72
2022/10/14 07:22:55;;;;;;;29.45;14.93;;;10.90;99.90;;;;;;5052116;28;20483;-72
2022/10/14 07:25:22;;;;;;;31.20;16.25;;;;;;;;;;5042985;28;20048;-72
2022/10/14 07:27:48;;;;;;;23.90;13.23;;;;;;;;;;5029711;28;20068;-72
2022/10/14 07:30:13;;;;;;;30.20;14.82;;;11.20;99.90;;;;;;5033170;28;20542;-71
2022/10/14 07:32:39;;;;;;;26.48;15.00;;;11.20;99.90;;;;;;5018392;28;20094;-71
2022/10/14 07:35:05;;;;;;;33.50;16.25;;;11.10;99.90;;;;;;5021937;28;20028;-71
2022/10/14 07:37:31;;;;;;;41.83;16.95;;;;;;;;;;5040430;28;20518;-70
2022/10/14 07:39:57;;;;;;;25.75;14.25;;;11.30;99.90;;;;;;5035547;28;20072;-71
2022/10/14 07:42:23;;;;;;;37.60;18.05;;;;;;;;;;5046976;28;20126;-71
2022/10/14 07:44:49;;;;;;;24.45;14.70;;;;;;;;;;5037512;28;20044;-71
2022/10/14 07:47:15;;;;;;;35.60;17.25;;;;;;;;;;5036030;28;20037;-71
2022/10/14 07:49:41;;;;;;;31.17;17.20;;;;;;;;;;5040138;28;20033;-71
2022/10/14 07:52:07;;;;;;;31.52;16.27;;;;;;;;;;5040239;28;20133;-71
2022/10/14 07:54:33;;;;;;;42.78;18.73;;;;;;;;;;5031441;28;20586;-71
2022/10/14 07:56:59;;;;;;;39.75;18.90;;;;;;;;;;5028944;28;20125;-71
2022/10/14 07:59:25;;;;;;;46.20;19.45;;;11.40;99.90;;;;;;5030039;28;20120;-71
2022/10/14 08:01:52;;;;;;;31.45;16.67;;;11.30;99.90;;;;;;5030884;28;20507;-72
2022/10/14 08:04:18;;;;;;;30.70;16.90;;;11.70;99.90;;;;;;5028801;28;20041;-72
2022/10/14 08:06:47;;;;;;;29.40;16.25;;;11.50;99.90;;;;;;5030574;28;20101;-72
2022/10/14 08:09:13;;;;;;;37.45;18.05;;;;;;;;;;5040845;28;20040;-72
2022/10/14 08:11:39;;;;;;;30.67;16.92;;;;;;;;;;5032563;28;20052;-73
2022/10/14 08:14:06;;;;;;;35.58;18.35;;;11.60;99.90;;;;;;5032418;28;20159;-72
2022/10/14 08:16:33;;;;;;;30.10;16.35;;;11.60;99.90;;;;;;5045258;28;20383;-72
2022/10/14 08:19:03;;;;;;;31.42;16.90;;;11.80;99.90;;;;;;5037485;28;20037;-72
2022/10/14 08:21:29;;;;;;;33.10;17.52;;;11.60;99.90;;;;;;5045154;28;20052;-72
2022/10/14 08:23:55;;;;;;;32.83;17.95;;;;;;;;;;5026603;28;20030;-73
2022/10/14 08:26:21;;;;;;;40.08;18.92;;;11.80;99.90;;;;;;5043379;28;20060;-72
2022/10/14 08:28:48;;;;;;;30.98;17.08;;;11.70;99.90;;;;;;5053307;28;20051;-72
2022/10/14 08:31:15;;;;;;;32.60;16.30;;;11.40;99.90;;;;;;5055174;28;20041;-72
2022/10/14 08:33:44;;;;;;;27.05;14.50;;;11.90;99.90;;;;;;5051896;28;20033;-72
2022/10/14 08:36:10;;;;;;;33.70;16.80;;;;;;;;;;5018541;28;20046;-72
2022/10/14 08:38:36;;;;;;;28.75;15.50;;;;;;;;;;5029214;28;20037;-73
2022/10/14 08:41:16;;;;;;;29.70;15.70;;;11.70;99.90;;;;;;5042999;28;20040;-72
2022/10/14 08:43:49;;;;;;;28.58;15.82;;;11.80;99.90;;;;;;5051617;28;20403;-72
2022/10/14 08:46:25;;;;;;;33.35;16.98;;;11.80;99.90;;;;;;5053672;28;20068;-73
2022/10/14 08:49:01;;;;;;;30.23;16.95;;;12.00;99.90;;;;;;5034047;28;20125;-73
2022/10/14 08:51:29;;;;;;;32.80;17.83;;;11.90;99.90;;;;;;5035425;28;20041;-72
2022/10/14 08:54:02;;;;;;;31.63;17.48;;;12.00;99.90;;;;;;5033284;28;20076;-72
2022/10/14 08:56:28;;;;;;;35.53;18.70;;;12.00;99.90;;;;;;5016706;28;20045;-72
2022/10/14 08:58:59;;;;;;;34.13;19.10;;;12.10;99.90;;;;;;5033545;28;20048;-72
2022/10/14 09:01:27;;;;;;;38.35;19.63;;;12.00;99.90;;;;;;5033206;28;20128;-72
2022/10/14 09:03:58;;;;;;;44.10;18.98;;;12.00;99.90;;;;;;5051431;28;20498;-72
2022/10/14 09:06:25;;;;;;;39.78;19.42;;;12.00;99.90;;;;;;5052946;28;20068;-72
2022/10/14 09:08:56;;;;;;;42.35;20.55;;;12.20;99.90;;;;;;5048208;28;20045;-72
2022/10/14 09:11:23;;;;;;;46.90;22.75;;;12.20;99.90;;;;;;5036208;28;20553;-72
2022/10/14 09:13:53;;;;;;;43.00;20.90;;;12.20;99.90;;;;;;5053704;28;20048;-72
2022/10/14 09:16:20;;;;;;;39.08;18.85;;;;;;;;;;5053232;28;20048;-72
2022/10/14 09:19:01;;;;;;;41.92;21.27;;;12.20;99.90;;;;;;5054763;28;20116;-72
2022/10/14 09:21:45;;;;;;;51.83;24.33;;;12.30;99.90;;;;;;5033756;28;20073;-72
2022/10/14 09:24:29;;;;;;;47.25;22.98;;;12.30;99.90;;;;;;5032518;28;20660;-72
2022/10/14 09:27:11;;;;;;;47.75;23.27;;;12.40;99.90;;;;;;5041655;28;20517;-73
2022/10/14 09:30:00;;;;;;;49.78;22.63;;;12.40;99.90;;;;;;5053096;28;20047;-72
2022/10/14 09:32:39;;;;;;;42.95;21.48;;;12.50;99.90;;;;;;5053901;28;20036;-73
2022/10/14 09:35:18;;;;;;;52.67;24.67;;;12.50;99.90;;;;;;5038758;28;20045;-73
2022/10/14 09:37:44;;;;;;;49.40;23.98;;;;;;;;;;5031859;28;20037;-73
2022/10/14 09:40:25;;;;;;;45.80;22.77;;;12.30;99.90;;;;;;5016120;28;20554;-73
2022/10/14 09:43:13;;;;;;;42.97;22.50;;;12.50;99.90;;;;;;5032675;28;20056;-70
2022/10/14 09:45:59;;;;;;;49.58;22.20;;;12.40;99.90;;;;;;5035315;28;20045;-71
2022/10/14 09:48:31;;;;;;;52.03;22.92;;;12.50;99.90;;;;;;5016277;28;20041;-71
2022/10/14 09:50:59;;;;;;;47.85;21.58;;;12.70;99.90;;;;;;5032794;28;20045;-70
2022/10/14 09:53:36;;;;;;;36.33;18.80;;;12.60;99.90;;;;;;5036593;28;20038;-70
2022/10/14 09:56:05;;;;;;;36.03;18.95;;;12.60;99.90;;;;;;5021070;28;20032;-70
2022/10/14 09:58:55;;;;;;;38.63;18.08;;;12.50;99.90;;;;;;5042608;28;20083;-70
2022/10/14 10:01:33;;;;;;;37.85;18.67;;;12.50;99.90;;;;;;5040875;28;20457;-71
2022/10/14 10:04:26;;;;;;;33.60;17.75;;;12.70;99.90;;;;;;5031611;28;20037;-70
2022/10/14 10:06:53;;;;;;;39.20;18.17;;;12.50;99.90;;;;;;5031235;28;20091;-70
2022/10/14 10:09:20;;;;;;;36.60;19.00;;;;;;;;;;5035942;28;20343;-71
2022/10/14 10:11:46;;;;;;;34.65;17.15;;;;;;;;;;5056039;28;20064;-71
2022/10/14 10:14:20;;;;;;;34.80;17.88;;;12.60;99.90;;;;;;5040061;28;20041;-71
2022/10/14 10:16:47;;;;;;;31.05;16.23;;;;;;;;;;5046402;28;20038;-71
2022/10/14 10:19:30;;;;;;;29.67;16.20;;;13.00;99.90;;;;;;5047550;28;20037;-71
2022/10/14 10:22:25;;;;;;;29.60;15.68;;;13.00;99.90;;;;;;5015893;28;20091;-70
2022/10/14 10:25:13;;;;;;;29.70;16.17;;;13.10;99.90;;;;;;5018235;28;20037;-71
2022/10/14 10:27:44;;;;;;;27.33;14.45;;;12.90;99.90;;;;;;5029106;28;20100;-71
2022/10/14 10:30:16;;;;;;;32.97;15.77;;;13.10;99.90;;;;;;5035516;28;20069;-70
2022/10/14 10:33:04;;;;;;;28.88;15.13;;;13.00;99.90;;;;;;5040839;28;20040;-70
2022/10/14 10:36:04;;;;;;;25.77;13.43;;;13.10;99.90;;;;;;5041398;28;20059;-71
2022/10/14 10:38:48;;;;;;;24.83;13.77;;;13.10;99.90;;;;;;5035983;28;20565;-71
2022/10/14 10:41:14;;;;;;;24.80;14.70;;;;;;;;;;5042202;28;20044;-72
2022/10/14 10:44:01;;;;;;;28.33;14.15;;;13.10;99.90;;;;;;5014455;28;20511;-71
2022/10/14 10:46:50;;;;;;;22.73;13.10;;;13.20;99.90;;;;;;5037870;28;20163;-70
2022/10/14 10:49:46;;;;;;;24.38;13.32;;;13.30;99.90;;;;;;5046838;28;20087;-71
2022/10/14 10:52:12;;;;;;;21.20;12.45;;;;;;;;;;5038769;28;20095;-71
2022/10/14 10:54:38;;;;;;;24.95;11.82;;;;;;;;;;5027294;28;20045;-72
2022/10/14 10:57:18;;;;;;;18.38;10.07;;;13.30;99.90;;;;;;5035972;28;20037;-72
2022/10/14 10:59:51;;;;;;;17.13;9.88;;;13.30;99.90;;;;;;5032359;28;20034;-72
2022/10/14 11:02:58;;;;;;;15.05;8.57;;;13.40;99.90;;;;;;5040267;28;20099;-73
2022/10/14 11:05:55;;;;;;;17.77;9.52;;;13.30;99.90;;;;;;5030409;28;20388;-72
2022/10/14 11:14:27;;;;;;;13.48;7.88;;;13.40;99.90;;;;;;5051380;28;20053;-72
2022/10/14 11:17:10;;;;;;;15.82;8.65;;;13.30;99.90;;;;;;5041523;28;20052;-72
2022/10/14 11:20:00;;;;;;;13.82;8.55;;;13.40;99.90;;;;;;5050681;28;20048;-73
2022/10/14 11:22:51;;;;;;;13.95;8.60;;;13.40;99.90;;;;;;5031294;28;20029;-72
2022/10/14 11:25:51;;;;;;;16.15;8.98;;;13.30;99.90;;;;;;5030281;28;20076;-73
2022/10/14 11:28:44;;;;;;;15.18;8.20;;;13.50;99.90;;;;;;5031213;28;20040;-73
2022/10/14 11:31:17;;;;;;;18.87;10.07;;;13.50;99.90;;;;;;5052119;28;20064;-72
2022/10/14 11:34:07;;;;;;;16.65;8.95;;;13.60;99.90;;;;;;5031497;28;20048;-73
2022/10/14 11:37:10;;;;;;;11.98;7.28;;;13.50;99.90;;;;;;5030810;28;20404;-72
2022/10/14 11:39:48;;;;;;;18.17;9.00;;;13.40;99.90;;;;;;5013387;28;20034;-73
2022/10/14 11:42:25;;;;;;;11.38;6.72;;;13.40;99.90;;;;;;5030577;28;20029;-72
2022/10/14 11:45:21;;;;;;;12.60;8.25;;;13.50;99.90;;;;;;5029931;28;20045;-73
2022/10/14 11:47:52;;;;;;;12.90;7.68;;;13.40;99.90;;;;;;5034752;28;20045;-73
2022/10/14 11:50:25;;;;;;;11.48;7.18;;;13.40;99.90;;;;;;5047333;28;20049;-72
2022/10/14 11:52:57;;;;;;;11.68;7.10;;;13.40;99.90;;;;;;5050847;28;20045;-73
2022/10/14 11:55:28;;;;;;;9.60;5.72;;;13.60;99.90;;;;;;5033758;28;20045;-72
2022/10/14 11:58:00;;;;;;;16.52;7.22;;;13.40;99.90;;;;;;5040420;28;20041;-72
2022/10/14 12:00:30;;;;;;;11.30;6.85;;;13.30;99.90;;;;;;5038687;28;20045;-72
2022/10/14 12:03:10;;;;;;;12.98;7.65;;;13.30;99.90;;;;;;5037677;28;20164;-72
2022/10/14 12:05:51;;;;;;;11.23;7.18;;;13.60;99.90;;;;;;5031482;28;20119;-72
2022/10/14 12:08:44;;;;;;;13.90;7.05;;;13.10;99.90;;;;;;5034781;28;20045;-73
2022/10/14 12:11:20;;;;;;;11.18;6.97;;;13.40;99.90;;;;;;5023027;28;20045;-72
2022/10/14 12:13:51;;;;;;;12.13;7.18;;;13.30;99.90;;;;;;5030672;28;20126;-72
2022/10/14 12:16:19;;;;;;;12.90;6.95;;;13.40;99.90;;;;;;5049591;28;20037;-73
2022/10/14 12:18:49;;;;;;;13.68;8.15;;;13.60;99.90;;;;;;5043047;28;20060;-73
2022/10/14 12:21:23;;;;;;;15.52;7.55;;;13.60;99.90;;;;;;5050710;28;20040;-73
2022/10/14 12:23:57;;;;;;;12.70;7.28;;;12.70;99.90;;;;;;5049646;28;20098;-71
2022/10/14 12:26:23;;;;;;;13.40;6.88;;;;;;;;;;5030766;28;20116;-73
2022/10/14 12:28:51;;;;;;;12.52;7.10;;;13.50;99.90;;;;;;5030025;28;20087;-73
2022/10/14 12:31:33;;;;;;;11.85;6.90;;;13.80;99.90;;;;;;5032020;28;20056;-73
2022/10/14 12:34:12;;;;;;;12.30;6.55;;;13.50;99.90;;;;;;5039860;28;20046;-71
2022/10/14 12:36:42;;;;;;;15.23;7.07;;;13.60;99.90;;;;;;5052983;28;20576;-71
2022/10/14 12:39:17;;;;;;;11.00;6.88;;;13.60;99.90;;;;;;5036687;28;20045;-72
2022/10/14 12:42:04;;;;;;;15.13;7.10;;;13.70;99.90;;;;;;5030415;28;20038;-72
2022/10/14 12:45:05;;;;;;;9.98;6.45;;;13.50;99.90;;;;;;5029596;28;20377;-71
2022/10/14 12:47:35;;;;;;;10.52;6.47;;;13.50;99.90;;;;;;5018528;28;20050;-72
2022/10/14 12:50:16;;;;;;;12.43;5.93;;;13.40;99.90;;;;;;5033295;28;20037;-72
2022/10/14 12:52:54;;;;;;;10.55;6.05;;;13.60;99.90;;;;;;5038291;28;20041;-70
2022/10/14 12:55:22;;;;;;;10.55;6.53;;;13.50;99.90;;;;;;5042521;28;20033;-71
2022/10/14 12:58:02;;;;;;;11.48;6.35;;;13.70;99.90;;;;;;5041622;28;20119;-72
2022/10/14 13:00:38;;;;;;;8.32;4.53;;;13.80;99.90;;;;;;5040792;28;20033;-72
2022/10/14 13:03:13;;;;;;;10.18;5.07;;;13.70;99.90;;;;;;5036366;28;20041;-72
2022/10/14 13:05:42;;;;;;;8.90;5.18;;;13.80;99.90;;;;;;5033783;28;20113;-72
2022/10/14 13:08:23;;;;;;;8.55;5.13;;;13.60;99.90;;;;;;5029844;28;20107;-71
2022/10/14 13:11:11;;;;;;;12.43;5.95;;;13.70;99.90;;;;;;5034983;28;20044;-72
2022/10/14 13:13:37;;;;;;;8.15;4.57;;;;;;;;;;5030883;28;20045;-72
2022/10/14 13:16:24;;;;;;;10.00;5.55;;;13.90;99.90;;;;;;5033775;28;20029;-72
2022/10/14 13:19:01;;;;;;;10.40;5.40;;;13.80;99.90;;;;;;5053115;28;20037;-72
2022/10/14 13:21:49;;;;;;;5.93;4.60;;;13.90;99.90;;;;;;5036660;28;20045;-72
2022/10/14 13:24:21;;;;;;;7.28;4.70;;;14.00;99.90;;;;;;5040411;28;20507;-73
2022/10/14 13:26:53;;;;;;;11.55;5.95;;;13.70;99.90;;;;;;5036328;28;20127;-72